EZY19YQ EGGW-GMMX
Flight info
| Callsign | EZY19YQ |
|---|---|
| Flight time | N/A |
| Altitude | 36000 |
| Route | RODNI N27 ICTAM Q63 CPT Y321 PEPIS Q41 SAM M195 LORKU DCT BALDA DCT BATAX DCT PORTA DCT ALAGU DCT AMSEL UR722 MABAP |
| Aircraft | A320/M-SDE3FGHIRWY/LB1 |
Departure
| Time | 2026-05-07 15:00 |
|---|---|
| Airport | London Luton Airport (EGGW) |
Arrival
| Time | N/A |
|---|---|
| Airport | Marrakesh Menara Airport (GMMX) |
| Time | Latitude | Longitude | Altitude | Speed | Heading |
|---|---|---|---|---|---|
| 2026-05-07 14:31 | 51.88073 | -0.37385 | 509 ft | 0 kts | 342° |
| 2026-05-07 14:49 | 51.88053 | -0.37375 | 255 ft | 4 kts | 339° |
| 2026-05-07 14:49 | 51.88034 | -0.37359 | 508 ft | 3 kts | 328° |
| 2026-05-07 14:50 | 51.88017 | -0.37349 | 508 ft | 4 kts | 46° |
| 2026-05-07 14:50 | 51.88007 | -0.37384 | 508 ft | 4 kts | 72° |
| 2026-05-07 14:50 | 51.88005 | -0.37392 | 508 ft | 0 kts | 72° |
| 2026-05-07 14:52 | 51.88005 | -0.37391 | 508 ft | 0 kts | 72° |
| 2026-05-07 14:52 | 51.88013 | -0.37352 | 508 ft | 7 kts | 71° |
| 2026-05-07 14:53 | 51.88036 | -0.37242 | 508 ft | 11 kts | 72° |
| 2026-05-07 14:53 | 51.88041 | -0.37153 | 508 ft | 4 kts | 122° |
| 2026-05-07 14:53 | 51.88020 | -0.37134 | 508 ft | 3 kts | 158° |
| 2026-05-07 14:53 | 51.87988 | -0.37117 | 508 ft | 9 kts | 162° |
| 2026-05-07 14:54 | 51.87902 | -0.37071 | 509 ft | 15 kts | 162° |
| 2026-05-07 14:54 | 51.87811 | -0.37022 | 514 ft | 15 kts | 161° |
| 2026-05-07 14:54 | 51.87710 | -0.36968 | 521 ft | 15 kts | 162° |
| 2026-05-07 14:54 | 51.87623 | -0.37004 | 522 ft | 17 kts | 250° |
| 2026-05-07 14:55 | 51.87590 | -0.37198 | 522 ft | 21 kts | 255° |
| 2026-05-07 14:55 | 51.87581 | -0.37422 | 523 ft | 16 kts | 250° |
| 2026-05-07 14:55 | 51.87501 | -0.37554 | 522 ft | 17 kts | 248° |
| 2026-05-07 14:55 | 51.87472 | -0.37721 | 523 ft | 14 kts | 254° |
| 2026-05-07 14:56 | 51.87443 | -0.37884 | 269 ft | 15 kts | 254° |
| 2026-05-07 14:56 | 51.87404 | -0.38032 | 524 ft | 14 kts | 225° |
| 2026-05-07 14:56 | 51.87368 | -0.38067 | 523 ft | 0 kts | 205° |
| 2026-05-07 14:58 | 51.87353 | -0.38079 | 522 ft | 7 kts | 205° |
| 2026-05-07 14:58 | 51.87295 | -0.38113 | 522 ft | 8 kts | 188° |
| 2026-05-07 14:58 | 51.87248 | -0.38103 | 524 ft | 3 kts | 117° |
| 2026-05-07 14:58 | 51.87251 | -0.38071 | 524 ft | 0 kts | 73° |
| 2026-05-07 14:59 | 51.87252 | -0.38068 | 524 ft | 5 kts | 73° |
| 2026-05-07 14:59 | 51.87339 | -0.37562 | 521 ft | 88 kts | 75° |
| 2026-05-07 14:59 | 51.87569 | -0.36229 | 524 ft | 156 kts | 74° |
| 2026-05-07 14:59 | 51.87873 | -0.34472 | 1100 ft | 162 kts | 75° |
| 2026-05-07 15:00 | 51.88182 | -0.32689 | 1762 ft | 170 kts | 75° |
| 2026-05-07 15:00 | 51.88526 | -0.30749 | 1913 ft | 194 kts | 74° |
| 2026-05-07 15:00 | 51.88929 | -0.28501 | 2063 ft | 220 kts | 74° |
| 2026-05-07 15:00 | 51.89197 | -0.25974 | 2365 ft | 239 kts | 98° |
| 2026-05-07 15:01 | 51.88487 | -0.23486 | 2751 ft | 257 kts | 136° |
| 2026-05-07 15:01 | 51.86909 | -0.22148 | 3403 ft | 264 kts | 173° |
| 2026-05-07 15:01 | 51.85105 | -0.22523 | 4025 ft | 268 kts | 207° |
| 2026-05-07 15:01 | 51.83748 | -0.24545 | 4770 ft | 271 kts | 241° |
| 2026-05-07 15:02 | 51.83087 | -0.27404 | 5547 ft | 274 kts | 257° |
| 2026-05-07 15:02 | 51.82754 | -0.30453 | 6308 ft | 277 kts | 262° |
| 2026-05-07 15:02 | 51.82498 | -0.33545 | 7097 ft | 279 kts | 265° |
| 2026-05-07 15:02 | 51.82210 | -0.36668 | 7782 ft | 284 kts | 260° |
| 2026-05-07 15:03 | 51.81858 | -0.39824 | 8432 ft | 288 kts | 258° |
| 2026-05-07 15:03 | 51.81447 | -0.43014 | 9087 ft | 291 kts | 257° |
| 2026-05-07 15:03 | 51.80997 | -0.46229 | 9716 ft | 295 kts | 256° |
| 2026-05-07 15:03 | 51.80519 | -0.49480 | 10205 ft | 304 kts | 256° |
| 2026-05-07 15:04 | 51.79999 | -0.52914 | 10332 ft | 324 kts | 256° |
| 2026-05-07 15:04 | 51.79441 | -0.56542 | 10539 ft | 341 kts | 256° |
| 2026-05-07 15:04 | 51.79130 | -0.58552 | 10753 ft | 345 kts | 256° |
| 2026-05-07 15:05 | 51.78974 | -0.59559 | 10875 ft | 347 kts | 256° |
| 2026-05-07 15:05 | 51.78393 | -0.63308 | 11794 ft | 340 kts | 258° |
| 2026-05-07 15:05 | 51.77823 | -0.66988 | 12630 ft | 337 kts | 258° |
| 2026-05-07 15:05 | 51.77311 | -0.70305 | 13281 ft | 337 kts | 257° |
| 2026-05-07 15:06 | 51.76892 | -0.73025 | 13781 ft | 338 kts | 257° |
| 2026-05-07 15:06 | 51.76195 | -0.76662 | 14450 ft | 340 kts | 248° |
| 2026-05-07 15:06 | 51.75071 | -0.80026 | 15072 ft | 342 kts | 236° |
| 2026-05-07 15:06 | 51.73546 | -0.82983 | 15681 ft | 345 kts | 226° |
| 2026-05-07 15:07 | 51.71847 | -0.85717 | 16264 ft | 346 kts | 225° |
| 2026-05-07 15:07 | 51.70134 | -0.88472 | 16829 ft | 348 kts | 225° |
| 2026-05-07 15:07 | 51.68414 | -0.91237 | 17347 ft | 351 kts | 224° |
| 2026-05-07 15:07 | 51.66680 | -0.94020 | 17872 ft | 354 kts | 224° |
| 2026-05-07 15:08 | 51.64924 | -0.96828 | 18366 ft | 357 kts | 223° |
| 2026-05-07 15:08 | 51.63152 | -0.99657 | 18853 ft | 360 kts | 223° |
| 2026-05-07 15:08 | 51.61364 | -1.02514 | 19313 ft | 364 kts | 222° |
| 2026-05-07 15:08 | 51.59582 | -1.05361 | 19745 ft | 368 kts | 221° |
| 2026-05-07 15:09 | 51.57754 | -1.08277 | 20168 ft | 373 kts | 221° |
| 2026-05-07 15:09 | 51.55902 | -1.11229 | 20572 ft | 378 kts | 221° |
| 2026-05-07 15:09 | 51.54032 | -1.14207 | 20946 ft | 383 kts | 220° |
| 2026-05-07 15:09 | 51.52117 | -1.17243 | 21326 ft | 386 kts | 218° |
| 2026-05-07 15:10 | 51.49964 | -1.19773 | 21716 ft | 384 kts | 204° |
| 2026-05-07 15:10 | 51.47511 | -1.21415 | 22077 ft | 383 kts | 192° |
| 2026-05-07 15:10 | 51.44902 | -1.22254 | 22424 ft | 383 kts | 182° |
| 2026-05-07 15:10 | 51.42233 | -1.22495 | 22771 ft | 386 kts | 179° |
| 2026-05-07 15:11 | 51.39536 | -1.22706 | 23118 ft | 390 kts | 179° |
| 2026-05-07 15:11 | 51.36808 | -1.22938 | 23448 ft | 395 kts | 179° |
| 2026-05-07 15:11 | 51.34054 | -1.23176 | 23761 ft | 399 kts | 179° |
| 2026-05-07 15:11 | 51.31267 | -1.23414 | 24078 ft | 403 kts | 178° |
| 2026-05-07 15:12 | 51.28455 | -1.23650 | 24392 ft | 406 kts | 178° |
| 2026-05-07 15:12 | 51.25619 | -1.23882 | 24672 ft | 411 kts | 178° |
| 2026-05-07 15:12 | 51.22750 | -1.24110 | 24925 ft | 415 kts | 178° |
| 2026-05-07 15:12 | 51.19851 | -1.24456 | 25192 ft | 422 kts | 184° |
| 2026-05-07 15:13 | 51.16949 | -1.25487 | 25448 ft | 431 kts | 190° |
| 2026-05-07 15:13 | 51.14040 | -1.26720 | 25669 ft | 435 kts | 190° |
| 2026-05-07 15:13 | 51.11099 | -1.27963 | 25911 ft | 440 kts | 190° |
| 2026-05-07 15:13 | 51.08125 | -1.29215 | 26145 ft | 444 kts | 190° |
| 2026-05-07 15:14 | 51.05119 | -1.30474 | 26362 ft | 448 kts | 190° |
| 2026-05-07 15:14 | 51.02092 | -1.31743 | 26597 ft | 452 kts | 191° |
| 2026-05-07 15:14 | 50.99040 | -1.33023 | 26811 ft | 456 kts | 191° |
| 2026-05-07 15:14 | 50.96012 | -1.34609 | 27026 ft | 463 kts | 200° |
| 2026-05-07 15:15 | 50.93131 | -1.36988 | 27241 ft | 470 kts | 210° |
| 2026-05-07 15:15 | 50.90385 | -1.39851 | 27467 ft | 474 kts | 212° |
| 2026-05-07 15:15 | 50.87626 | -1.42736 | 27703 ft | 477 kts | 212° |
| 2026-05-07 15:15 | 50.84842 | -1.45641 | 27934 ft | 480 kts | 212° |
| 2026-05-07 15:16 | 50.82047 | -1.48548 | 28167 ft | 482 kts | 212° |
| 2026-05-07 15:16 | 50.79233 | -1.51465 | 28393 ft | 485 kts | 212° |
| 2026-05-07 15:16 | 50.76405 | -1.54388 | 28621 ft | 487 kts | 212° |
| 2026-05-07 15:16 | 50.74525 | -1.56331 | 28767 ft | 488 kts | 212° |
| 2026-05-07 15:17 | 50.71676 | -1.59270 | 29002 ft | 490 kts | 212° |
| 2026-05-07 15:17 | 50.68814 | -1.62221 | 29224 ft | 492 kts | 212° |
| 2026-05-07 15:17 | 50.65944 | -1.65176 | 29443 ft | 493 kts | 212° |
| 2026-05-07 15:17 | 50.63068 | -1.68134 | 29657 ft | 494 kts | 212° |
| 2026-05-07 15:18 | 50.60191 | -1.71085 | 29863 ft | 496 kts | 212° |
| 2026-05-07 15:18 | 50.57287 | -1.74056 | 30071 ft | 497 kts | 212° |
| 2026-05-07 15:18 | 50.54391 | -1.77014 | 30356 ft | 496 kts | 212° |
| 2026-05-07 15:18 | 50.51501 | -1.79968 | 30634 ft | 495 kts | 212° |
| 2026-05-07 15:19 | 50.48615 | -1.82916 | 30903 ft | 495 kts | 212° |
| 2026-05-07 15:19 | 50.45729 | -1.85859 | 31169 ft | 494 kts | 212° |
| 2026-05-07 15:19 | 50.42846 | -1.88793 | 31432 ft | 494 kts | 212° |
| 2026-05-07 15:19 | 50.39965 | -1.91721 | 31689 ft | 493 kts | 212° |
| 2026-05-07 15:20 | 50.36149 | -1.95590 | 32035 ft | 492 kts | 212° |
| 2026-05-07 15:20 | 50.34207 | -1.97559 | 32204 ft | 492 kts | 212° |
| 2026-05-07 15:20 | 50.31336 | -2.00469 | 32453 ft | 492 kts | 212° |
| 2026-05-07 15:20 | 50.28497 | -2.03337 | 32693 ft | 491 kts | 212° |
| 2026-05-07 15:21 | 50.25619 | -2.06237 | 32933 ft | 491 kts | 212° |
| 2026-05-07 15:21 | 50.22749 | -2.09114 | 33172 ft | 490 kts | 212° |
| 2026-05-07 15:21 | 50.19868 | -2.11953 | 33399 ft | 490 kts | 211° |
| 2026-05-07 15:21 | 50.16977 | -2.14765 | 33629 ft | 489 kts | 211° |
| 2026-05-07 15:22 | 50.14081 | -2.17561 | 33863 ft | 489 kts | 211° |
| 2026-05-07 15:22 | 50.11190 | -2.20342 | 34086 ft | 488 kts | 211° |
| 2026-05-07 15:22 | 50.08306 | -2.23115 | 34310 ft | 488 kts | 211° |
| 2026-05-07 15:22 | 50.05414 | -2.25900 | 34512 ft | 487 kts | 211° |
| 2026-05-07 15:23 | 50.02532 | -2.28687 | 34707 ft | 487 kts | 211° |
| 2026-05-07 15:23 | 49.99659 | -2.31468 | 34897 ft | 487 kts | 211° |
| 2026-05-07 15:23 | 49.96786 | -2.34248 | 35076 ft | 486 kts | 211° |
| 2026-05-07 15:23 | 49.93886 | -2.36944 | 35258 ft | 485 kts | 206° |
| 2026-05-07 15:24 | 49.90824 | -2.39128 | 35412 ft | 484 kts | 201° |
| 2026-05-07 15:24 | 49.87732 | -2.41187 | 35567 ft | 484 kts | 201° |
| 2026-05-07 15:24 | 49.84644 | -2.43235 | 35717 ft | 483 kts | 201° |
| 2026-05-07 15:24 | 49.81555 | -2.45282 | 35755 ft | 482 kts | 201° |
| 2026-05-07 15:25 | 49.75390 | -2.49359 | 35753 ft | 481 kts | 201° |
| 2026-05-07 15:25 | 49.69225 | -2.53424 | 35756 ft | 481 kts | 201° |
| 2026-05-07 15:26 | 49.63060 | -2.57481 | 35758 ft | 481 kts | 201° |
| 2026-05-07 15:26 | 49.56897 | -2.61536 | 35754 ft | 481 kts | 201° |
| 2026-05-07 15:27 | 49.50778 | -2.65555 | 35756 ft | 481 kts | 201° |
| 2026-05-07 15:27 | 49.44618 | -2.69583 | 35754 ft | 481 kts | 201° |
| 2026-05-07 15:28 | 49.38444 | -2.73598 | 35752 ft | 481 kts | 201° |
| 2026-05-07 15:28 | 49.32283 | -2.77599 | 35753 ft | 481 kts | 201° |
| 2026-05-07 15:29 | 49.26116 | -2.81596 | 35753 ft | 481 kts | 201° |
| 2026-05-07 15:29 | 49.19946 | -2.85592 | 35755 ft | 481 kts | 201° |
| 2026-05-07 15:30 | 49.13773 | -2.89566 | 35758 ft | 481 kts | 201° |
| 2026-05-07 15:30 | 49.07598 | -2.93542 | 35761 ft | 482 kts | 201° |
| 2026-05-07 15:31 | 49.01418 | -2.97503 | 35762 ft | 482 kts | 201° |
| 2026-05-07 15:31 | 48.95233 | -3.01448 | 35761 ft | 482 kts | 201° |
| 2026-05-07 15:32 | 48.89056 | -3.05392 | 35765 ft | 481 kts | 201° |
| 2026-05-07 15:32 | 48.82879 | -3.09320 | 35764 ft | 481 kts | 201° |
| 2026-05-07 15:33 | 48.76698 | -3.13240 | 35760 ft | 481 kts | 201° |
| 2026-05-07 15:33 | 48.70508 | -3.17157 | 35757 ft | 481 kts | 201° |
| 2026-05-07 15:34 | 48.64329 | -3.21053 | 35756 ft | 481 kts | 201° |
| 2026-05-07 15:34 | 48.58140 | -3.24962 | 35754 ft | 482 kts | 201° |
| 2026-05-07 15:35 | 48.51953 | -3.28849 | 35750 ft | 482 kts | 201° |
| 2026-05-07 15:35 | 48.45756 | -3.32711 | 35750 ft | 482 kts | 201° |
| 2026-05-07 15:36 | 48.39556 | -3.36578 | 35750 ft | 482 kts | 201° |
| 2026-05-07 15:36 | 48.33386 | -3.40424 | 35751 ft | 482 kts | 201° |
| 2026-05-07 15:37 | 48.27182 | -3.44275 | 35751 ft | 482 kts | 201° |
| 2026-05-07 15:37 | 48.20982 | -3.48123 | 35751 ft | 482 kts | 201° |
| 2026-05-07 15:38 | 48.14771 | -3.51958 | 35753 ft | 482 kts | 201° |
| 2026-05-07 15:38 | 48.08565 | -3.55778 | 35752 ft | 482 kts | 201° |
| 2026-05-07 15:39 | 48.02357 | -3.59588 | 35752 ft | 482 kts | 200° |
| 2026-05-07 15:39 | 47.96158 | -3.63386 | 35755 ft | 482 kts | 201° |
| 2026-05-07 15:40 | 47.89990 | -3.67166 | 35760 ft | 482 kts | 200° |
| 2026-05-07 15:40 | 47.83777 | -3.70945 | 35762 ft | 482 kts | 200° |
| 2026-05-07 15:41 | 47.77569 | -3.74716 | 35763 ft | 481 kts | 200° |
| 2026-05-07 15:41 | 47.71369 | -3.78479 | 35764 ft | 481 kts | 200° |
| 2026-05-07 15:42 | 47.65162 | -3.82231 | 35761 ft | 481 kts | 200° |
| 2026-05-07 15:42 | 47.58957 | -3.85978 | 35762 ft | 481 kts | 200° |
| 2026-05-07 15:43 | 47.52756 | -3.89713 | 35765 ft | 481 kts | 200° |
| 2026-05-07 15:43 | 47.46584 | -3.93421 | 35764 ft | 481 kts | 200° |
| 2026-05-07 15:44 | 47.40375 | -3.97138 | 35764 ft | 481 kts | 200° |
| 2026-05-07 15:44 | 47.34166 | -4.00852 | 35762 ft | 481 kts | 200° |
| 2026-05-07 15:45 | 47.27962 | -4.04551 | 35760 ft | 481 kts | 200° |
| 2026-05-07 15:45 | 47.21757 | -4.08227 | 35759 ft | 480 kts | 200° |
| 2026-05-07 15:46 | 47.12450 | -4.13739 | 35752 ft | 480 kts | 200° |
| 2026-05-07 15:47 | 47.06257 | -4.17401 | 35752 ft | 480 kts | 200° |
| 2026-05-07 15:47 | 47.00095 | -4.21031 | 35753 ft | 480 kts | 200° |
| 2026-05-07 15:48 | 46.93888 | -4.24675 | 35751 ft | 481 kts | 200° |
| 2026-05-07 15:48 | 46.87667 | -4.28310 | 35757 ft | 481 kts | 200° |
| 2026-05-07 15:49 | 46.81454 | -4.31940 | 35759 ft | 481 kts | 200° |
| 2026-05-07 15:49 | 46.75246 | -4.35572 | 35754 ft | 480 kts | 200° |
| 2026-05-07 15:50 | 46.69032 | -4.39190 | 35755 ft | 480 kts | 200° |
| 2026-05-07 15:50 | 46.62826 | -4.42796 | 35756 ft | 481 kts | 200° |
| 2026-05-07 15:51 | 46.56605 | -4.46382 | 35759 ft | 481 kts | 200° |
| 2026-05-07 15:51 | 46.50383 | -4.49971 | 35758 ft | 481 kts | 200° |
| 2026-05-07 15:52 | 46.44167 | -4.53567 | 35764 ft | 481 kts | 200° |
| 2026-05-07 15:52 | 46.37954 | -4.57143 | 35758 ft | 481 kts | 200° |
| 2026-05-07 15:53 | 46.31729 | -4.60702 | 35758 ft | 480 kts | 200° |
| 2026-05-07 15:53 | 46.25512 | -4.64253 | 35756 ft | 480 kts | 200° |
| 2026-05-07 15:54 | 46.19297 | -4.67801 | 35758 ft | 480 kts | 200° |
| 2026-05-07 15:54 | 46.13078 | -4.71340 | 35755 ft | 480 kts | 200° |
| 2026-05-07 15:55 | 46.06867 | -4.74866 | 35754 ft | 480 kts | 200° |
| 2026-05-07 15:55 | 46.00651 | -4.78385 | 35752 ft | 480 kts | 200° |
| 2026-05-07 15:56 | 45.94438 | -4.81907 | 35751 ft | 480 kts | 200° |
| 2026-05-07 15:56 | 45.88221 | -4.85406 | 35750 ft | 480 kts | 199° |
| 2026-05-07 15:57 | 45.82001 | -4.88892 | 35753 ft | 480 kts | 200° |
| 2026-05-07 15:57 | 45.75817 | -4.92359 | 35752 ft | 480 kts | 200° |
| 2026-05-07 15:58 | 45.69555 | -4.95864 | 35753 ft | 480 kts | 200° |
| 2026-05-07 15:58 | 45.63364 | -4.99322 | 35753 ft | 480 kts | 199° |
| 2026-05-07 15:59 | 45.57136 | -5.02776 | 35754 ft | 480 kts | 199° |
| 2026-05-07 15:59 | 45.50904 | -5.06227 | 35757 ft | 480 kts | 199° |
| 2026-05-07 16:00 | 45.44677 | -5.09688 | 35757 ft | 480 kts | 200° |
| 2026-05-07 16:00 | 45.39501 | -5.12569 | 35760 ft | 480 kts | 200° |
| 2026-05-07 16:01 | 45.33272 | -5.16018 | 35761 ft | 480 kts | 199° |
| 2026-05-07 16:01 | 45.27039 | -5.19430 | 35758 ft | 480 kts | 199° |
| 2026-05-07 16:02 | 45.20801 | -5.22847 | 35757 ft | 480 kts | 199° |
| 2026-05-07 16:02 | 45.14569 | -5.26268 | 35760 ft | 480 kts | 199° |
| 2026-05-07 16:03 | 45.08338 | -5.29675 | 35759 ft | 480 kts | 199° |
| 2026-05-07 16:03 | 45.02100 | -5.33083 | 35759 ft | 480 kts | 199° |
| 2026-05-07 16:04 | 44.95867 | -5.36479 | 35758 ft | 480 kts | 199° |
| 2026-05-07 16:04 | 44.89621 | -5.39855 | 35757 ft | 480 kts | 199° |
| 2026-05-07 16:05 | 44.83380 | -5.43233 | 35757 ft | 480 kts | 199° |
| 2026-05-07 16:05 | 44.77145 | -5.46603 | 35759 ft | 480 kts | 199° |
| 2026-05-07 16:06 | 44.70907 | -5.49958 | 35758 ft | 480 kts | 199° |
| 2026-05-07 16:06 | 44.64709 | -5.53291 | 35758 ft | 480 kts | 199° |
| 2026-05-07 16:07 | 44.58401 | -5.56304 | 35760 ft | 478 kts | 193° |
| 2026-05-07 16:07 | 44.51984 | -5.58771 | 35757 ft | 478 kts | 193° |
| 2026-05-07 16:08 | 44.45565 | -5.61231 | 35757 ft | 478 kts | 193° |
| 2026-05-07 16:08 | 44.39150 | -5.63692 | 35756 ft | 478 kts | 193° |
| 2026-05-07 16:09 | 44.32737 | -5.66157 | 35756 ft | 478 kts | 193° |
| 2026-05-07 16:09 | 44.26319 | -5.68618 | 35753 ft | 478 kts | 193° |
| 2026-05-07 16:10 | 44.19903 | -5.71068 | 35756 ft | 478 kts | 193° |
| 2026-05-07 16:10 | 44.13482 | -5.73502 | 35757 ft | 478 kts | 193° |
| 2026-05-07 16:11 | 44.07061 | -5.75922 | 35758 ft | 478 kts | 193° |
| 2026-05-07 16:11 | 44.00645 | -5.78352 | 35757 ft | 478 kts | 193° |
| 2026-05-07 16:12 | 43.94272 | -5.80764 | 35757 ft | 478 kts | 193° |
| 2026-05-07 16:12 | 43.87856 | -5.83184 | 35754 ft | 478 kts | 193° |
| 2026-05-07 16:13 | 43.81431 | -5.85598 | 35757 ft | 478 kts | 193° |
| 2026-05-07 16:13 | 43.75020 | -5.88002 | 35754 ft | 478 kts | 193° |
| 2026-05-07 16:14 | 43.68595 | -5.90405 | 35756 ft | 478 kts | 193° |
| 2026-05-07 16:14 | 43.62179 | -5.92797 | 35754 ft | 478 kts | 193° |
| 2026-05-07 16:15 | 43.55762 | -5.95182 | 35753 ft | 478 kts | 193° |
| 2026-05-07 16:15 | 43.49337 | -5.97572 | 35754 ft | 478 kts | 193° |
| 2026-05-07 16:16 | 43.42916 | -5.99959 | 35745 ft | 478 kts | 193° |
| 2026-05-07 16:16 | 43.36480 | -6.02338 | 35748 ft | 479 kts | 193° |
| 2026-05-07 16:17 | 43.30048 | -6.04711 | 35747 ft | 479 kts | 193° |
| 2026-05-07 16:17 | 43.23629 | -6.07076 | 35737 ft | 480 kts | 193° |
| 2026-05-07 16:18 | 43.17172 | -6.09459 | 35736 ft | 481 kts | 193° |
| 2026-05-07 16:18 | 43.10705 | -6.11837 | 35738 ft | 482 kts | 193° |
| 2026-05-07 16:19 | 43.04220 | -6.14208 | 35731 ft | 483 kts | 193° |
| 2026-05-07 16:19 | 42.97712 | -6.16581 | 35725 ft | 485 kts | 193° |
| 2026-05-07 16:20 | 42.91169 | -6.18965 | 35736 ft | 486 kts | 193° |
| 2026-05-07 16:20 | 42.84631 | -6.21347 | 35738 ft | 486 kts | 193° |
| 2026-05-07 16:21 | 42.78076 | -6.23726 | 35741 ft | 487 kts | 192° |
| 2026-05-07 16:21 | 42.71521 | -6.26099 | 35749 ft | 487 kts | 193° |
| 2026-05-07 16:22 | 42.64969 | -6.28470 | 35761 ft | 486 kts | 193° |
| 2026-05-07 16:22 | 42.58473 | -6.30818 | 35772 ft | 485 kts | 193° |
| 2026-05-07 16:23 | 42.51951 | -6.33168 | 35763 ft | 485 kts | 193° |
| 2026-05-07 16:23 | 42.45425 | -6.35508 | 35757 ft | 485 kts | 192° |
| 2026-05-07 16:24 | 42.38895 | -6.37844 | 35757 ft | 485 kts | 193° |
| 2026-05-07 16:24 | 42.32368 | -6.40178 | 35743 ft | 486 kts | 192° |
| 2026-05-07 16:25 | 42.25827 | -6.42500 | 35747 ft | 486 kts | 192° |
| 2026-05-07 16:25 | 42.19274 | -6.44829 | 35755 ft | 486 kts | 192° |
| 2026-05-07 16:26 | 42.12731 | -6.47157 | 35756 ft | 486 kts | 192° |
| 2026-05-07 16:26 | 42.06197 | -6.49478 | 35764 ft | 485 kts | 192° |
| 2026-05-07 16:27 | 41.99664 | -6.51781 | 35772 ft | 485 kts | 192° |
| 2026-05-07 16:27 | 41.93149 | -6.54079 | 35768 ft | 484 kts | 192° |
| 2026-05-07 16:28 | 41.86643 | -6.56371 | 35771 ft | 483 kts | 192° |
| 2026-05-07 16:28 | 41.80137 | -6.58664 | 35766 ft | 483 kts | 192° |
| 2026-05-07 16:29 | 41.73643 | -6.60941 | 35763 ft | 482 kts | 192° |
| 2026-05-07 16:29 | 41.67144 | -6.63169 | 35767 ft | 482 kts | 191° |
| 2026-05-07 16:30 | 41.60609 | -6.65119 | 35770 ft | 480 kts | 189° |
| 2026-05-07 16:30 | 41.54069 | -6.66952 | 35768 ft | 480 kts | 189° |
| 2026-05-07 16:31 | 41.47583 | -6.68831 | 35766 ft | 480 kts | 190° |
| 2026-05-07 16:31 | 41.41070 | -6.70773 | 35763 ft | 479 kts | 190° |
| 2026-05-07 16:32 | 41.34561 | -6.72709 | 35755 ft | 479 kts | 190° |
| 2026-05-07 16:32 | 41.28037 | -6.74592 | 35750 ft | 479 kts | 189° |
| 2026-05-07 16:33 | 41.21504 | -6.76445 | 35751 ft | 480 kts | 189° |
| 2026-05-07 16:33 | 41.14975 | -6.78287 | 35749 ft | 480 kts | 189° |
| 2026-05-07 16:34 | 41.08447 | -6.80144 | 35753 ft | 480 kts | 189° |
| 2026-05-07 16:34 | 41.01922 | -6.82004 | 35762 ft | 479 kts | 189° |
| 2026-05-07 16:35 | 40.95406 | -6.83845 | 35754 ft | 479 kts | 189° |
| 2026-05-07 16:35 | 40.88885 | -6.85683 | 35758 ft | 479 kts | 189° |
| 2026-05-07 16:36 | 40.82367 | -6.87516 | 35753 ft | 480 kts | 189° |
| 2026-05-07 16:36 | 40.75817 | -6.89357 | 35973 ft | 482 kts | 189° |
| 2026-05-07 16:36 | 40.72536 | -6.90283 | 36098 ft | 482 kts | 189° |
| 2026-05-07 16:37 | 40.69251 | -6.91209 | 36221 ft | 483 kts | 189° |
| 2026-05-07 16:37 | 40.65971 | -6.92130 | 36346 ft | 482 kts | 189° |
| 2026-05-07 16:37 | 40.62724 | -6.93039 | 36469 ft | 482 kts | 189° |
| 2026-05-07 16:37 | 40.59438 | -6.93955 | 36597 ft | 482 kts | 189° |
| 2026-05-07 16:38 | 40.56150 | -6.94871 | 36729 ft | 482 kts | 189° |
| 2026-05-07 16:38 | 40.49575 | -6.96695 | 36755 ft | 482 kts | 189° |
| 2026-05-07 16:39 | 40.43008 | -6.98521 | 36757 ft | 482 kts | 189° |
| 2026-05-07 16:39 | 40.36431 | -7.00360 | 36755 ft | 483 kts | 189° |
| 2026-05-07 16:40 | 40.29890 | -7.02185 | 36755 ft | 483 kts | 189° |
| 2026-05-07 16:40 | 40.23308 | -7.04002 | 36755 ft | 483 kts | 189° |
| 2026-05-07 16:41 | 40.16723 | -7.05817 | 36763 ft | 483 kts | 189° |
| 2026-05-07 16:41 | 40.10146 | -7.07629 | 36770 ft | 482 kts | 189° |
| 2026-05-07 16:42 | 40.03585 | -7.09439 | 36770 ft | 482 kts | 189° |
| 2026-05-07 16:42 | 39.97023 | -7.11237 | 36769 ft | 481 kts | 189° |
| 2026-05-07 16:43 | 39.90477 | -7.13022 | 36768 ft | 481 kts | 189° |
| 2026-05-07 16:43 | 39.83939 | -7.14809 | 36768 ft | 480 kts | 189° |
| 2026-05-07 16:44 | 39.77403 | -7.16595 | 36766 ft | 480 kts | 189° |
| 2026-05-07 16:44 | 39.71971 | -7.18071 | 36766 ft | 479 kts | 189° |
| 2026-05-07 16:45 | 39.65439 | -7.19849 | 36761 ft | 479 kts | 189° |
| 2026-05-07 16:45 | 39.58903 | -7.21620 | 36756 ft | 479 kts | 189° |
| 2026-05-07 16:46 | 39.52376 | -7.23388 | 36753 ft | 479 kts | 189° |
| 2026-05-07 16:46 | 39.45843 | -7.25163 | 36754 ft | 480 kts | 189° |
| 2026-05-07 16:47 | 39.39309 | -7.26931 | 36752 ft | 480 kts | 189° |
| 2026-05-07 16:47 | 39.32769 | -7.28684 | 36748 ft | 480 kts | 189° |
| 2026-05-07 16:48 | 39.26227 | -7.30440 | 36745 ft | 480 kts | 189° |
| 2026-05-07 16:48 | 39.19680 | -7.32200 | 36751 ft | 480 kts | 189° |
| 2026-05-07 16:49 | 39.13131 | -7.33954 | 36758 ft | 480 kts | 189° |
| 2026-05-07 16:49 | 39.06628 | -7.35687 | 36760 ft | 480 kts | 189° |
| 2026-05-07 16:50 | 39.00082 | -7.37440 | 36760 ft | 480 kts | 189° |
| 2026-05-07 16:50 | 38.93556 | -7.39183 | 36759 ft | 479 kts | 189° |
| 2026-05-07 16:51 | 38.87021 | -7.40919 | 36758 ft | 479 kts | 189° |
| 2026-05-07 16:51 | 38.80486 | -7.42648 | 36756 ft | 479 kts | 189° |
| 2026-05-07 16:52 | 38.73950 | -7.44374 | 36752 ft | 479 kts | 189° |
| 2026-05-07 16:52 | 38.67417 | -7.46110 | 36755 ft | 479 kts | 189° |
| 2026-05-07 16:53 | 38.60880 | -7.47842 | 36757 ft | 479 kts | 189° |
| 2026-05-07 16:53 | 38.54352 | -7.49553 | 36756 ft | 479 kts | 189° |
| 2026-05-07 16:54 | 38.47822 | -7.51263 | 36755 ft | 479 kts | 189° |
| 2026-05-07 16:54 | 38.41291 | -7.52976 | 36757 ft | 479 kts | 189° |
| 2026-05-07 16:55 | 38.34816 | -7.54675 | 36757 ft | 479 kts | 189° |
| 2026-05-07 16:55 | 38.28288 | -7.56383 | 36761 ft | 478 kts | 189° |
| 2026-05-07 16:56 | 38.21764 | -7.58088 | 36755 ft | 478 kts | 189° |
| 2026-05-07 16:56 | 38.11986 | -7.60630 | 36757 ft | 478 kts | 189° |